createdAt,value
2018-09-03T00:02:07.681Z,63.91
2018-09-03T00:07:11.254Z,63.83
2018-09-03T00:12:14.874Z,64.24
2018-09-03T00:17:18.589Z,63.68
2018-09-03T00:22:22.174Z,63.82
2018-09-03T00:27:25.904Z,64.25
2018-09-03T00:32:34.757Z,63.83
2018-09-03T00:37:43.462Z,64.32
2018-09-03T00:42:52.302Z,63.99
2018-09-03T00:47:55.966Z,64.38
2018-09-03T00:52:59.618Z,64.45
2018-09-03T00:58:03.266Z,64.20
2018-09-03T01:03:06.965Z,63.97
2018-09-03T01:08:10.648Z,63.93
2018-09-03T01:13:14.234Z,64.31
2018-09-03T01:18:17.854Z,64.22
2018-09-03T01:23:21.518Z,64.08
2018-09-03T01:28:25.328Z,64.13
2018-09-03T01:33:28.962Z,64.05
2018-09-03T01:38:32.655Z,64.02
2018-09-03T01:43:36.241Z,64.18
2018-09-03T01:48:39.970Z,64.15
2018-09-03T01:53:43.604Z,63.77
2018-09-03T01:58:47.239Z,63.58
2018-09-03T02:03:52.090Z,64.06
2018-09-03T02:08:55.692Z,64.04
2018-09-03T02:13:59.298Z,63.88
2018-09-03T02:19:02.957Z,63.47
2018-09-03T02:24:06.772Z,64.09
2018-09-03T02:29:10.365Z,64.16
2018-09-03T02:34:13.978Z,64.04
2018-09-03T02:39:17.578Z,63.70
2018-09-03T02:44:21.283Z,64.07
2018-09-03T02:49:24.945Z,64.05
2018-09-03T02:54:28.659Z,63.98
2018-09-03T02:59:32.231Z,64.14
2018-09-03T03:04:35.849Z,64.28
2018-09-03T03:09:39.460Z,63.84
2018-09-03T03:14:43.160Z,64.16
2018-09-03T03:19:46.914Z,64.17
2018-09-03T03:24:50.606Z,64.03
2018-09-03T03:29:54.254Z,63.41
2018-09-03T03:34:57.914Z,64.04
2018-09-03T03:40:01.732Z,64.09
2018-09-03T03:45:05.470Z,65.81
2018-09-03T03:50:09.363Z,66.86
2018-09-03T03:55:13.089Z,65.12
2018-09-03T04:00:16.725Z,64.11
2018-09-03T04:05:20.318Z,64.36
2018-09-03T04:10:23.936Z,64.50
2018-09-03T04:15:27.704Z,66.13
2018-09-03T04:20:31.398Z,66.00
2018-09-03T04:25:35.061Z,64.61
2018-09-03T04:30:38.673Z,66.04
2018-09-03T04:35:42.225Z,67.36
2018-09-03T04:40:45.929Z,68.72
2018-09-03T04:45:49.666Z,68.42
2018-09-03T04:50:53.328Z,68.63
2018-09-03T04:55:56.898Z,68.22
2018-09-03T05:01:00.575Z,67.33
2018-09-03T05:06:04.261Z,66.27
2018-09-03T05:11:07.898Z,68.93
2018-09-03T05:16:11.561Z,67.90
2018-09-03T05:21:15.323Z,66.46
2018-09-03T05:26:18.927Z,66.17
2018-09-03T05:31:22.595Z,67.03
2018-09-03T05:36:26.245Z,67.00
2018-09-03T05:41:29.925Z,66.85
2018-09-03T05:46:33.616Z,67.12
2018-09-03T05:51:37.258Z,67.47
2018-09-03T05:56:40.892Z,67.16
2018-09-03T06:01:44.686Z,67.45
2018-09-03T06:06:48.288Z,67.54
2018-09-03T06:11:51.926Z,68.09
2018-09-03T06:16:55.524Z,67.92
2018-09-03T06:21:59.277Z,68.35
2018-09-03T06:27:02.915Z,68.77
2018-09-03T06:32:06.653Z,69.88
2018-09-03T06:37:10.306Z,68.52
2018-09-03T06:42:13.970Z,68.94
2018-09-03T06:47:17.612Z,68.93
2018-09-03T06:52:21.264Z,69.65
2018-09-03T06:57:25.056Z,71.05
2018-09-03T07:02:28.733Z,72.60
2018-09-03T07:07:32.312Z,73.39
2018-09-03T07:12:35.967Z,74.42
2018-09-03T07:17:39.994Z,75.13
2018-09-03T07:22:43.689Z,74.19
2018-09-03T07:27:47.415Z,75.17
2018-09-03T07:32:51.022Z,74.84
2018-09-03T07:37:54.651Z,76.33
2018-09-03T07:42:58.290Z,76.41
2018-09-03T07:48:01.898Z,77.04
2018-09-03T07:53:05.537Z,75.14
2018-09-03T07:58:09.592Z,75.53
2018-09-03T08:03:13.198Z,76.79
2018-09-03T08:08:16.831Z,78.51
2018-09-03T08:13:25.702Z,78.69
2018-09-03T08:18:29.356Z,78.75
2018-09-03T08:23:32.942Z,78.09
2018-09-03T08:28:36.621Z,75.63
2018-09-03T08:33:40.257Z,75.21
2018-09-03T08:38:43.886Z,75.60
2018-09-03T08:43:47.852Z,74.92
2018-09-03T08:48:51.463Z,76.06
2018-09-03T08:53:55.125Z,75.54
2018-09-03T08:58:58.787Z,75.43
2018-09-03T09:04:02.503Z,75.17
2018-09-03T09:09:08.217Z,74.75
2018-09-03T09:14:11.828Z,75.30
2018-09-03T09:19:15.501Z,75.58
2018-09-03T09:24:19.217Z,75.09
2018-09-03T09:29:22.787Z,75.60
2018-09-03T09:34:26.426Z,75.05
2018-09-03T09:39:30.061Z,74.76
2018-09-03T09:44:33.671Z,74.23
2018-09-03T09:49:37.297Z,74.39
2018-09-03T09:54:40.939Z,74.23
2018-09-03T09:59:44.607Z,74.25
2018-09-03T10:04:48.196Z,74.43
2018-09-03T10:09:51.847Z,74.01
2018-09-03T10:14:55.467Z,73.76
2018-09-03T10:19:59.524Z,73.34
2018-09-03T10:25:03.297Z,72.75
2018-09-03T10:30:08.113Z,72.79
2018-09-03T10:35:11.713Z,73.05
2018-09-03T10:40:15.302Z,72.89
2018-09-03T10:45:18.889Z,73.03
2018-09-03T10:50:22.543Z,73.26
2018-09-03T10:55:26.198Z,73.60
2018-09-03T11:00:29.795Z,73.24
2018-09-03T11:05:33.389Z,72.67
2018-09-03T11:10:36.973Z,73.36
2018-09-03T11:15:40.605Z,73.56
2018-09-03T11:20:44.226Z,72.52
2018-09-03T11:25:47.814Z,71.92
2018-09-03T11:30:51.466Z,72.54
2018-09-03T11:35:55.067Z,72.48
2018-09-03T11:46:01.413Z,71.83
2018-09-03T11:51:05.018Z,71.54
2018-09-03T11:56:08.710Z,71.34
2018-09-03T12:01:12.394Z,70.38
2018-09-03T12:06:16.089Z,70.42
2018-09-03T12:11:19.730Z,70.50
2018-09-03T12:16:27.027Z,70.55
2018-09-03T12:21:30.595Z,69.96
2018-09-03T12:26:34.210Z,70.34
2018-09-03T12:31:37.777Z,70.03
2018-09-03T12:36:41.405Z,69.99
2018-09-03T12:41:45.105Z,69.66
2018-09-03T12:46:48.838Z,69.85
2018-09-03T12:51:52.615Z,69.12
2018-09-03T12:56:56.197Z,69.34
2018-09-03T13:01:59.857Z,68.72
2018-09-03T13:07:03.450Z,68.70
2018-09-03T13:12:07.075Z,69.21
2018-09-03T13:17:10.659Z,70.81
2018-09-03T13:22:14.221Z,72.06
2018-09-03T13:27:17.855Z,71.58
2018-09-03T13:32:28.066Z,70.35
2018-09-03T13:37:31.658Z,71.22
2018-09-03T13:42:35.330Z,71.36
2018-09-03T13:47:38.928Z,72.20
2018-09-03T13:52:42.669Z,70.71
2018-09-03T13:57:46.358Z,72.96
2018-09-03T14:02:49.998Z,73.46
2018-09-03T14:07:53.682Z,71.18
2018-09-03T14:13:00.135Z,69.12
2018-09-03T14:18:03.874Z,68.83
2018-09-03T14:23:07.595Z,68.87
2018-09-03T14:28:11.224Z,71.22
2018-09-03T14:33:14.803Z,73.65
2018-09-03T14:38:18.472Z,72.89
2018-09-03T14:43:22.156Z,71.49
2018-09-03T14:48:25.762Z,71.52
2018-09-03T14:53:29.381Z,70.74
2018-09-03T14:58:32.967Z,70.08
2018-09-03T15:03:36.617Z,72.35
2018-09-03T15:08:40.283Z,71.43
2018-09-03T15:13:43.918Z,71.19
2018-09-03T15:18:47.600Z,71.77
2018-09-03T15:23:51.231Z,72.68
2018-09-03T15:28:55.216Z,71.92
2018-09-03T15:33:58.887Z,71.23
2018-09-03T15:39:02.527Z,72.26
2018-09-03T15:44:06.375Z,71.14
2018-09-03T15:49:10.079Z,70.14
2018-09-03T15:54:13.839Z,70.19
2018-09-03T15:59:17.387Z,70.76
2018-09-03T16:04:21.042Z,69.98
2018-09-03T16:09:24.736Z,69.31
2018-09-03T16:14:28.478Z,70.52
2018-09-03T16:19:32.216Z,69.54
2018-09-03T16:24:36.215Z,70.33
2018-09-03T16:29:39.854Z,70.37
2018-09-03T16:34:43.493Z,69.86
2018-09-03T16:39:47.198Z,70.01
2018-09-03T16:44:50.901Z,72.00
2018-09-03T16:49:55.140Z,71.23
2018-09-03T16:54:58.887Z,73.20
2018-09-03T17:00:04.234Z,73.48
2018-09-03T17:05:08.795Z,73.38
2018-09-03T17:10:12.516Z,73.52
2018-09-03T17:15:17.397Z,73.61
2018-09-03T17:20:21.259Z,72.21
2018-09-03T17:25:25.046Z,71.16
2018-09-03T17:30:28.739Z,70.85
2018-09-03T17:35:33.707Z,72.80
2018-09-03T17:40:38.659Z,72.90
2018-09-03T17:45:43.632Z,73.52
2018-09-03T17:50:48.055Z,73.89
2018-09-03T17:55:52.793Z,73.49
2018-09-03T18:00:57.660Z,74.22
2018-09-03T18:06:01.476Z,74.85
2018-09-03T18:11:06.215Z,75.29
2018-09-03T18:16:09.966Z,74.76
2018-09-03T18:21:13.869Z,75.25
2018-09-03T18:26:18.793Z,74.66
2018-09-03T18:31:22.473Z,74.33
2018-09-03T18:36:27.223Z,74.14
2018-09-03T18:41:30.909Z,73.59
2018-09-03T18:46:35.145Z,73.52
2018-09-03T18:51:39.247Z,72.73
2018-09-03T18:56:43.758Z,70.33
2018-09-03T19:01:47.640Z,71.78
2018-09-03T19:06:51.262Z,72.65
2018-09-03T19:11:55.155Z,72.21
2018-09-03T19:17:00.112Z,72.15
2018-09-03T19:22:04.346Z,70.40
2018-09-03T19:27:10.033Z,71.50
2018-09-03T19:32:14.822Z,71.74
2018-09-03T19:37:18.619Z,72.74
2018-09-03T19:42:22.291Z,71.78
2018-09-03T19:47:26.241Z,73.33
2018-09-03T19:52:29.962Z,72.75
2018-09-03T19:57:33.725Z,72.86
2018-09-03T20:02:37.317Z,71.77
2018-09-03T20:07:41.066Z,71.89
2018-09-03T20:12:44.771Z,70.93
2018-09-03T20:17:48.460Z,71.40
2018-09-03T20:22:52.222Z,70.51
2018-09-03T20:27:56.034Z,71.02
2018-09-03T20:32:59.654Z,71.34
2018-09-03T20:38:03.322Z,72.39
2018-09-03T20:43:07.051Z,72.20
2018-09-03T20:48:10.689Z,71.90
2018-09-03T20:53:14.367Z,71.81
2018-09-03T20:58:18.646Z,70.43
2018-09-03T21:03:22.370Z,70.19
2018-09-03T21:08:26.055Z,71.07
2018-09-03T21:13:29.668Z,71.59
2018-09-03T21:18:33.342Z,71.32
2018-09-03T21:23:36.921Z,70.70
2018-09-03T21:28:40.613Z,69.05
2018-09-03T21:33:44.214Z,69.67
2018-09-03T21:38:47.942Z,70.73
2018-09-03T21:43:51.848Z,70.03
2018-09-03T21:48:55.628Z,70.38
2018-09-03T21:53:59.395Z,70.79
2018-09-03T21:59:03.725Z,71.22
2018-09-03T22:04:07.397Z,69.35
2018-09-03T22:09:11.040Z,68.92
2018-09-03T22:14:14.986Z,69.14
2018-09-03T22:19:19.423Z,68.99
2018-09-03T22:24:23.463Z,68.02
2018-09-03T22:29:27.138Z,68.83
2018-09-03T22:34:30.746Z,68.47
2018-09-03T22:39:34.378Z,68.18
2018-09-03T22:44:38.031Z,67.70
2018-09-03T22:49:41.644Z,67.64
2018-09-03T22:54:45.270Z,67.83
2018-09-03T22:59:48.865Z,67.15
2018-09-03T23:04:52.703Z,67.33
2018-09-03T23:09:56.329Z,67.64
2018-09-03T23:15:00.882Z,67.33
2018-09-03T23:20:05.352Z,67.01
2018-09-03T23:25:09.048Z,67.03
2018-09-03T23:30:12.714Z,66.87
2018-09-03T23:35:16.402Z,66.98
2018-09-03T23:40:20.012Z,66.85
2018-09-03T23:45:23.644Z,66.72
2018-09-03T23:50:27.901Z,66.43
2018-09-03T23:55:31.537Z,66.13
